Time;durP1;ratioP1;P1;durP2;ratioP2;P2;SDS_P1;SDS_P2;PMS_P1;PMS_P2;Temp;Humidity;BMP_temperature;BMP_pressure;BME280_temperature;BME280_humidity;BME280_pressure;Samples;Min_cycle;Max_cycle;Signal;HPM_P1;HPM_P2
2023/10/30 00:18:15;;;;;;;4.07;2.00;;;;;;;21.31;52.49;99839.91;40294219;29;20059;-73
2023/10/30 00:38:15;;;;;;;2.05;1.60;;;;;;;21.36;52.02;99845.66;40298226;29;20517;-73
2023/10/30 00:58:16;;;;;;;2.30;1.60;;;;;;;21.50;51.94;99856.78;40294229;29;20070;-76
2023/10/30 01:18:16;;;;;;;2.03;1.38;;;;;;;21.29;52.22;99818.19;40291129;29;20711;-73
2023/10/30 01:38:17;;;;;;;2.65;1.42;;;;;;;21.49;52.18;99839.31;40290676;29;20133;-74
2023/10/30 01:58:18;;;;;;;1.85;1.60;;;;;;;21.42;52.45;99831.09;40281950;29;20045;-72
2023/10/30 02:18:19;;;;;;;2.13;1.70;;;;;;;21.34;52.54;99810.69;40287735;29;20407;-72
2023/10/30 02:38:20;;;;;;;2.97;1.38;;;;;;;21.20;52.48;99809.28;40301527;29;20053;-73
2023/10/30 02:58:20;;;;;;;1.83;1.52;;;;;;;21.19;52.43;99815.50;40298697;29;20053;-73
2023/10/30 03:18:21;;;;;;;1.98;1.25;;;;;;;21.30;52.75;99835.66;40288714;29;20045;-74
2023/10/30 03:38:23;;;;;;;1.80;1.40;;;;;;;21.29;52.63;99855.03;40295416;29;20056;-73
2023/10/30 03:58:25;;;;;;;3.75;1.50;;;;;;;21.11;52.54;99816.16;40292994;29;20049;-72
2023/10/30 04:18:25;;;;;;;1.63;1.33;;;;;;;21.23;52.83;99837.13;40293128;29;20554;-74
2023/10/30 04:38:26;;;;;;;1.77;1.40;;;;;;;21.24;52.74;99836.19;40291713;29;20148;-73
2023/10/30 04:58:26;;;;;;;1.50;1.10;;;;;;;21.22;52.42;99838.91;40298352;29;20037;-73
2023/10/30 05:18:30;;;;;;;1.40;1.20;;;;;;;21.20;52.52;99846.16;40296361;29;20053;-81
2023/10/30 05:38:32;;;;;;;2.17;1.33;;;;;;;21.32;52.69;99864.47;40293891;29;20037;-73
2023/10/30 05:58:32;;;;;;;2.35;1.67;;;;;;;21.24;52.72;99863.34;40291968;29;20041;-73
2023/10/30 06:18:33;;;;;;;1.10;1.00;;;;;;;21.35;52.14;99872.94;40289297;29;20491;-73
2023/10/30 06:38:38;;;;;;;1.92;1.60;;;;;;;21.50;52.81;99914.72;40295785;29;20113;-82
2023/10/30 06:58:39;;;;;;;8.32;2.25;;;;;;;21.34;52.11;99908.13;40277858;29;20045;-81
2023/10/30 07:18:39;;;;;;;4.65;2.00;;;;;;;21.47;51.09;99934.28;40278252;29;20049;-82
2023/10/30 07:38:41;;;;;;;6.57;2.10;;;;;;;21.49;50.56;99945.50;40290686;29;20065;-74
2023/10/30 07:58:41;;;;;;;4.18;1.92;;;;;;;21.47;49.98;99939.53;40280268;29;20038;-75
2023/10/30 08:18:42;;;;;;;5.18;1.80;;;;;;;21.32;49.43;99910.06;40294412;29;20919;-75
2023/10/30 08:38:43;;;;;;;5.50;1.90;;;;;;;21.59;49.93;99924.50;40293580;29;20049;-82
2023/10/30 08:58:44;;;;;;;5.50;1.92;;;;;;;21.64;49.54;99917.03;40297699;29;20045;-81
2023/10/30 09:18:44;;;;;;;3.47;1.80;;;;;;;21.76;47.98;99912.47;40313192;29;20501;-87
2023/10/30 09:38:44;;;;;;;4.10;1.60;;;;;;;21.95;48.04;99932.81;40332245;29;20056;-79
2023/10/30 09:58:47;;;;;;;7.60;1.80;;;;;;;21.87;46.86;99896.59;40295361;29;20049;-72
2023/10/30 10:18:48;;;;;;;4.55;1.50;;;;;;;21.87;47.04;99893.09;40299045;29;20571;-71
2023/10/30 10:38:59;;;;;;;8.63;1.50;;;;;;;21.62;47.45;99887.34;40299599;29;20050;-79
2023/10/30 10:59:04;;;;;;;2.95;1.35;;;;;;;21.58;46.13;99867.50;40289195;29;20134;-78
2023/10/30 11:19:07;;;;;;;4.03;1.30;;;;;;;22.03;46.16;99887.28;40284700;29;20040;-79
2023/10/30 11:39:10;;;;;;;4.32;1.67;;;;;;;22.43;46.44;99844.16;40263634;29;20125;-79
2023/10/30 11:59:10;;;;;;;8.48;2.03;;;;;;;22.39;45.65;99824.34;40274715;29;20068;-81
2023/10/30 12:19:11;;;;;;;12.40;2.22;;;;;;;22.54;45.68;99806.25;40286201;29;20069;-81
2023/10/30 12:39:18;;;;;;;8.23;1.95;;;;;;;22.79;45.69;99794.25;40290694;29;20045;-80
2023/10/30 12:59:18;;;;;;;3.65;1.80;;;;;;;22.82;45.15;99745.63;40272548;29;20125;-81
2023/10/30 13:19:20;;;;;;;14.90;2.20;;;;;;;23.20;47.81;99732.41;40309347;29;20129;-80
2023/10/30 13:39:22;;;;;;;7.97;2.55;;;;;;;22.99;47.96;99729.00;40321077;29;20045;-81
2023/10/30 13:59:22;;;;;;;7.30;2.13;;;;;;;22.85;45.54;99732.09;40336128;29;20521;-85
2023/10/30 14:19:23;;;;;;;6.63;1.90;;;;;;;22.67;45.90;99739.97;40329812;29;20136;-88
2023/10/30 14:39:23;;;;;;;3.72;1.70;;;;;;;22.54;44.97;99737.66;40341817;29;20041;-83
2023/10/30 14:59:23;;;;;;;5.13;1.55;;;;;;;22.42;44.26;99742.25;40324964;29;20052;-87
2023/10/30 15:19:25;;;;;;;3.65;1.80;;;;;;;22.19;46.49;99716.19;40343378;29;20090;-84
2023/10/30 15:39:26;;;;;;;3.90;1.58;;;;;;;22.12;46.70;99732.72;40335504;29;20044;-84
2023/10/30 15:59:26;;;;;;;5.65;1.85;;;;;;;22.17;47.18;99754.22;40323813;29;20068;-82
2023/10/30 16:19:27;;;;;;;4.32;1.80;;;;;;;22.21;45.52;99731.88;40293588;29;20044;-83
2023/10/30 16:39:27;;;;;;;5.18;1.70;;;;;;;22.32;45.50;99744.06;40283594;29;20140;-83
2023/10/30 16:59:27;;;;;;;2.75;1.73;;;;;;;22.18;46.24;99718.97;40296713;29;20041;-75
2023/10/30 17:19:28;;;;;;;4.60;2.10;;;;;;;22.25;45.86;99751.69;40291485;29;20049;-74
2023/10/30 17:39:29;;;;;;;10.02;2.45;;;;;;;22.20;46.24;99735.47;40278595;29;20596;-75
2023/10/30 17:59:30;;;;;;;8.45;2.88;;;;;;;22.00;46.35;99714.41;40283224;29;20073;-73
2023/10/30 18:19:31;;;;;;;13.77;3.40;;;;;;;22.17;48.30;99730.50;40283907;29;20045;-75
2023/10/30 18:39:32;;;;;;;8.18;3.42;;;;;;;22.20;46.92;99719.66;40304359;29;20045;-76
2023/10/30 18:59:33;;;;;;;7.75;3.67;;;;;;;22.13;47.05;99700.94;40292533;29;20495;-76
2023/10/30 19:19:34;;;;;;;5.65;3.70;;;;;;;22.09;46.86;99689.00;40295163;29;20053;-74
2023/10/30 19:39:36;;;;;;;7.50;3.95;;;;;;;22.11;46.67;99655.44;40300405;29;20045;-74
2023/10/30 19:59:37;;;;;;;6.05;3.95;;;;;;;21.96;46.74;99659.47;40282615;29;20053;-74
2023/10/30 20:19:38;;;;;;;6.45;4.13;;;;;;;21.74;47.20;99600.88;40298573;29;20139;-87
2023/10/30 20:39:39;;;;;;;7.32;4.40;;;;;;;21.76;47.20;99625.25;40325492;29;20049;-89
2023/10/30 20:59:40;;;;;;;8.05;4.43;;;;;;;21.95;48.55;99594.53;40321362;29;20605;-86
2023/10/30 21:19:40;;;;;;;8.38;4.80;;;;;;;21.88;49.37;99560.84;40304547;29;20121;-83
2023/10/30 21:39:41;;;;;;;8.35;4.20;;;;;;;21.89;49.72;99530.91;40296749;29;20050;-75
2023/10/30 21:59:48;;;;;;;5.78;4.15;;;;;;;21.88;49.92;99507.31;40284604;29;20101;-76
2023/10/30 22:19:53;;;;;;;8.48;4.30;;;;;;;21.82;49.84;99469.19;40303104;29;20037;-74
2023/10/30 22:39:53;;;;;;;10.20;4.20;;;;;;;21.86;50.45;99465.31;40282378;29;20056;-77
2023/10/30 22:59:57;;;;;;;5.60;3.92;;;;;;;21.61;50.55;99416.75;40292710;29;20076;-75
2023/10/30 23:19:57;;;;;;;6.32;3.97;;;;;;;21.70;50.92;99429.06;40284689;29;20049;-75
2023/10/30 23:39:58;;;;;;;7.82;3.85;;;;;;;21.66;50.89;99417.13;40285704;29;20515;-75
2023/10/30 23:59:58;;;;;;;5.88;4.43;;;;;;;21.74;51.12;99406.69;40283995;29;20137;-76
